FIN6KV EPKK-EFHK
Flight info
| Callsign | FIN6KV |
|---|---|
| Flight time | 1h 40m |
| Altitude | 35000 |
| Route | POBOK DCT LOGDA DCT SUWGI DCT BOKSU DCT GUNTA M857 SOKVA DCT ANAMA DCT KEMET Q11 INTOR |
| Aircraft | B738/M-SDE2E3FGHIRWXY/LB1 |
Departure
| Time | 2026-04-25 19:57 |
|---|---|
| Airport | Kraków John Paul II International Airport (EPKK) |
Arrival
| Time | 2026-04-25 21:37 |
|---|---|
| Airport | Helsinki Vantaa Airport (EFHK) |
| Time | Latitude | Longitude | Altitude | Speed | Heading |
|---|---|---|---|---|---|
| 2026-04-25 19:10 | 50.07298 | 19.79799 | 800 ft | 0 kts | 166° |
| 2026-04-25 19:46 | 50.07308 | 19.79795 | 799 ft | 2 kts | 169° |
| 2026-04-25 19:46 | 50.07322 | 19.79791 | 799 ft | 2 kts | 168° |
| 2026-04-25 19:46 | 50.07333 | 19.79787 | 799 ft | 0 kts | 168° |
| 2026-04-25 19:46 | 50.07344 | 19.79780 | 799 ft | 2 kts | 141° |
| 2026-04-25 19:47 | 50.07354 | 19.79763 | 799 ft | 2 kts | 114° |
| 2026-04-25 19:47 | 50.07357 | 19.79740 | 799 ft | 2 kts | 84° |
| 2026-04-25 19:47 | 50.07356 | 19.79729 | 799 ft | 1 kts | 72° |
| 2026-04-25 19:47 | 50.07355 | 19.79724 | 799 ft | 0 kts | 75° |
| 2026-04-25 19:50 | 50.07358 | 19.79744 | 799 ft | 3 kts | 75° |
| 2026-04-25 19:50 | 50.07366 | 19.79793 | 799 ft | 6 kts | 77° |
| 2026-04-25 19:50 | 50.07376 | 19.79865 | 799 ft | 7 kts | 77° |
| 2026-04-25 19:51 | 50.07390 | 19.79955 | 799 ft | 8 kts | 76° |
| 2026-04-25 19:51 | 50.07402 | 19.80040 | 799 ft | 7 kts | 77° |
| 2026-04-25 19:51 | 50.07413 | 19.80115 | 799 ft | 6 kts | 78° |
| 2026-04-25 19:51 | 50.07426 | 19.80208 | 799 ft | 9 kts | 78° |
| 2026-04-25 19:52 | 50.07441 | 19.80313 | 799 ft | 10 kts | 75° |
| 2026-04-25 19:52 | 50.07492 | 19.80385 | 799 ft | 10 kts | 21° |
| 2026-04-25 19:52 | 50.07557 | 19.80415 | 799 ft | 9 kts | 9° |
| 2026-04-25 19:52 | 50.07619 | 19.80411 | 799 ft | 8 kts | 349° |
| 2026-04-25 19:53 | 50.07682 | 19.80390 | 799 ft | 8 kts | 348° |
| 2026-04-25 19:53 | 50.07740 | 19.80371 | 799 ft | 8 kts | 348° |
| 2026-04-25 19:53 | 50.07792 | 19.80354 | 799 ft | 7 kts | 348° |
| 2026-04-25 19:53 | 50.07826 | 19.80342 | 799 ft | 3 kts | 347° |
| 2026-04-25 19:54 | 50.07856 | 19.80332 | 799 ft | 9 kts | 347° |
| 2026-04-25 19:54 | 50.07960 | 19.80296 | 799 ft | 16 kts | 347° |
| 2026-04-25 19:54 | 50.08008 | 19.80178 | 799 ft | 9 kts | 258° |
| 2026-04-25 19:54 | 50.08007 | 19.80169 | 799 ft | 0 kts | 258° |
| 2026-04-25 19:56 | 50.07999 | 19.80114 | 799 ft | 25 kts | 258° |
| 2026-04-25 19:56 | 50.07910 | 19.79476 | 799 ft | 93 kts | 258° |
| 2026-04-25 19:56 | 50.07728 | 19.78172 | 799 ft | 150 kts | 258° |
| 2026-04-25 19:56 | 50.07492 | 19.76411 | 1105 ft | 170 kts | 259° |
| 2026-04-25 19:57 | 50.07285 | 19.74739 | 2084 ft | 153 kts | 261° |
| 2026-04-25 19:57 | 50.07046 | 19.73106 | 2573 ft | 162 kts | 260° |
| 2026-04-25 19:57 | 50.06782 | 19.71354 | 2978 ft | 172 kts | 262° |
| 2026-04-25 19:57 | 50.06520 | 19.69489 | 3376 ft | 186 kts | 262° |
| 2026-04-25 19:58 | 50.06278 | 19.67445 | 3804 ft | 197 kts | 270° |
| 2026-04-25 19:58 | 50.06549 | 19.65343 | 4214 ft | 208 kts | 298° |
| 2026-04-25 19:58 | 50.07545 | 19.63635 | 4654 ft | 225 kts | 322° |
| 2026-04-25 19:58 | 50.09007 | 19.62542 | 5140 ft | 243 kts | 338° |
| 2026-04-25 19:59 | 50.10703 | 19.61926 | 5660 ft | 256 kts | 343° |
| 2026-04-25 19:59 | 50.12482 | 19.61590 | 6317 ft | 266 kts | 355° |
| 2026-04-25 19:59 | 50.14344 | 19.62114 | 7002 ft | 280 kts | 15° |
| 2026-04-25 19:59 | 50.16046 | 19.63697 | 7679 ft | 293 kts | 32° |
| 2026-04-25 20:00 | 50.17607 | 19.65792 | 8364 ft | 298 kts | 36° |
| 2026-04-25 20:00 | 50.18628 | 19.67237 | 8839 ft | 298 kts | 36° |
| 2026-04-25 20:00 | 50.20670 | 19.70116 | 9665 ft | 303 kts | 35° |
| 2026-04-25 20:00 | 50.22266 | 19.72325 | 10258 ft | 309 kts | 34° |
| 2026-04-25 20:01 | 50.25652 | 19.76928 | 10924 ft | 338 kts | 34° |
| 2026-04-25 20:01 | 50.27453 | 19.79367 | 11256 ft | 353 kts | 34° |
| 2026-04-25 20:01 | 50.29354 | 19.81947 | 11519 ft | 370 kts | 35° |
| 2026-04-25 20:02 | 50.31316 | 19.84618 | 11874 ft | 383 kts | 35° |
| 2026-04-25 20:02 | 50.33342 | 19.87393 | 12472 ft | 388 kts | 35° |
| 2026-04-25 20:02 | 50.35395 | 19.90212 | 13071 ft | 394 kts | 35° |
| 2026-04-25 20:02 | 50.37455 | 19.93042 | 13750 ft | 397 kts | 35° |
| 2026-04-25 20:03 | 50.39514 | 19.95873 | 14400 ft | 400 kts | 35° |
| 2026-04-25 20:03 | 50.41611 | 19.98756 | 15050 ft | 404 kts | 34° |
| 2026-04-25 20:03 | 50.43751 | 20.01698 | 15713 ft | 408 kts | 34° |
| 2026-04-25 20:03 | 50.45876 | 20.04619 | 16368 ft | 411 kts | 34° |
| 2026-04-25 20:04 | 50.48041 | 20.07600 | 16955 ft | 416 kts | 34° |
| 2026-04-25 20:04 | 50.50196 | 20.10571 | 17541 ft | 421 kts | 34° |
| 2026-04-25 20:04 | 50.52413 | 20.13634 | 18167 ft | 424 kts | 34° |
| 2026-04-25 20:04 | 50.54631 | 20.16686 | 18723 ft | 428 kts | 33° |
| 2026-04-25 20:05 | 50.56908 | 20.19611 | 19368 ft | 426 kts | 30° |
| 2026-04-25 20:05 | 50.59364 | 20.22266 | 19910 ft | 424 kts | 23° |
| 2026-04-25 20:05 | 50.61949 | 20.24447 | 20486 ft | 422 kts | 18° |
| 2026-04-25 20:05 | 50.64587 | 20.26355 | 21040 ft | 423 kts | 15° |
| 2026-04-25 20:06 | 50.67325 | 20.28180 | 21582 ft | 425 kts | 14° |
| 2026-04-25 20:06 | 50.70042 | 20.29932 | 22118 ft | 427 kts | 14° |
| 2026-04-25 20:06 | 50.72784 | 20.31688 | 22527 ft | 433 kts | 14° |
| 2026-04-25 20:06 | 50.75572 | 20.33490 | 23056 ft | 436 kts | 14° |
| 2026-04-25 20:07 | 50.78401 | 20.35337 | 23510 ft | 440 kts | 14° |
| 2026-04-25 20:07 | 50.81232 | 20.37205 | 24048 ft | 442 kts | 14° |
| 2026-04-25 20:07 | 50.84060 | 20.39088 | 24485 ft | 447 kts | 14° |
| 2026-04-25 20:07 | 50.86945 | 20.41020 | 25034 ft | 448 kts | 14° |
| 2026-04-25 20:08 | 50.89809 | 20.42948 | 25491 ft | 451 kts | 14° |
| 2026-04-25 20:08 | 50.92683 | 20.44889 | 25922 ft | 455 kts | 14° |
| 2026-04-25 20:08 | 50.95592 | 20.46860 | 26440 ft | 456 kts | 14° |
| 2026-04-25 20:08 | 50.98495 | 20.48829 | 26871 ft | 459 kts | 14° |
| 2026-04-25 20:09 | 51.01425 | 20.50820 | 27308 ft | 461 kts | 14° |
| 2026-04-25 20:09 | 51.04380 | 20.52830 | 27758 ft | 464 kts | 14° |
| 2026-04-25 20:09 | 51.07379 | 20.54873 | 28088 ft | 468 kts | 14° |
| 2026-04-25 20:09 | 51.10339 | 20.56891 | 28444 ft | 471 kts | 14° |
| 2026-04-25 20:10 | 51.12341 | 20.58260 | 28782 ft | 471 kts | 14° |
| 2026-04-25 20:10 | 51.16378 | 20.61028 | 29345 ft | 474 kts | 14° |
| 2026-04-25 20:10 | 51.19390 | 20.63096 | 29770 ft | 474 kts | 14° |
| 2026-04-25 20:10 | 51.22411 | 20.65186 | 30625 ft | 465 kts | 14° |
| 2026-04-25 20:11 | 51.25337 | 20.67216 | 31207 ft | 460 kts | 14° |
| 2026-04-25 20:11 | 51.28298 | 20.69265 | 31560 ft | 461 kts | 14° |
| 2026-04-25 20:11 | 51.31246 | 20.71329 | 31859 ft | 462 kts | 14° |
| 2026-04-25 20:11 | 51.34231 | 20.72821 | 32272 ft | 442 kts | 1° |
| 2026-04-25 20:12 | 51.37264 | 20.73262 | 32732 ft | 427 kts | 352° |
| 2026-04-25 20:12 | 51.40187 | 20.73206 | 33136 ft | 421 kts | 349° |
| 2026-04-25 20:12 | 51.43108 | 20.72965 | 33498 ft | 418 kts | 348° |
| 2026-04-25 20:12 | 51.45083 | 20.72759 | 33718 ft | 418 kts | 347° |
| 2026-04-25 20:13 | 51.48937 | 20.72322 | 34107 ft | 417 kts | 347° |
| 2026-04-25 20:13 | 51.51877 | 20.71978 | 34413 ft | 416 kts | 347° |
| 2026-04-25 20:13 | 51.54757 | 20.71638 | 34721 ft | 414 kts | 347° |
| 2026-04-25 20:13 | 51.57658 | 20.71288 | 34766 ft | 417 kts | 347° |
| 2026-04-25 20:14 | 51.63473 | 20.70581 | 34766 ft | 416 kts | 347° |
| 2026-04-25 20:14 | 51.69244 | 20.69912 | 34776 ft | 417 kts | 347° |
| 2026-04-25 20:15 | 51.75079 | 20.69916 | 34763 ft | 436 kts | 4° |
| 2026-04-25 20:15 | 51.78027 | 20.71558 | 34780 ft | 452 kts | 15° |
| 2026-04-25 20:15 | 51.80860 | 20.73889 | 34779 ft | 461 kts | 20° |
| 2026-04-25 20:16 | 51.86429 | 20.79251 | 34767 ft | 466 kts | 21° |
| 2026-04-25 20:16 | 51.91938 | 20.84657 | 34754 ft | 462 kts | 21° |
| 2026-04-25 20:17 | 51.97421 | 20.89898 | 34767 ft | 457 kts | 20° |
| 2026-04-25 20:17 | 52.02976 | 20.95050 | 34744 ft | 459 kts | 19° |
| 2026-04-25 20:18 | 52.08466 | 21.00086 | 34751 ft | 451 kts | 19° |
| 2026-04-25 20:18 | 52.13929 | 21.05071 | 34755 ft | 454 kts | 19° |
| 2026-04-25 20:19 | 52.19490 | 21.10131 | 34732 ft | 453 kts | 19° |
| 2026-04-25 20:19 | 52.24998 | 21.15163 | 34750 ft | 457 kts | 19° |
| 2026-04-25 20:20 | 52.30555 | 21.20249 | 34750 ft | 457 kts | 19° |
| 2026-04-25 20:20 | 52.36062 | 21.25312 | 34752 ft | 456 kts | 19° |
| 2026-04-25 20:21 | 52.41606 | 21.30420 | 34709 ft | 457 kts | 20° |
| 2026-04-25 20:21 | 52.47160 | 21.35554 | 34734 ft | 458 kts | 20° |
| 2026-04-25 20:22 | 52.51761 | 21.39813 | 34695 ft | 460 kts | 20° |
| 2026-04-25 20:22 | 52.58271 | 21.45867 | 34721 ft | 460 kts | 20° |
| 2026-04-25 20:23 | 52.63840 | 21.51061 | 34709 ft | 459 kts | 20° |
| 2026-04-25 20:23 | 52.69390 | 21.56245 | 34724 ft | 460 kts | 20° |
| 2026-04-25 20:24 | 52.74985 | 21.61492 | 34683 ft | 463 kts | 20° |
| 2026-04-25 20:24 | 52.80563 | 21.66741 | 34701 ft | 460 kts | 21° |
| 2026-04-25 20:25 | 52.86118 | 21.71986 | 34699 ft | 463 kts | 21° |
| 2026-04-25 20:25 | 52.91731 | 21.77297 | 34699 ft | 463 kts | 21° |
| 2026-04-25 20:26 | 52.97355 | 21.82635 | 34702 ft | 464 kts | 21° |
| 2026-04-25 20:26 | 53.02992 | 21.87998 | 34690 ft | 466 kts | 21° |
| 2026-04-25 20:27 | 53.08599 | 21.93355 | 34697 ft | 466 kts | 21° |
| 2026-04-25 20:27 | 53.14219 | 21.98742 | 34657 ft | 461 kts | 21° |
| 2026-04-25 20:28 | 53.19788 | 22.04094 | 34687 ft | 465 kts | 22° |
| 2026-04-25 20:28 | 53.25415 | 22.09514 | 34677 ft | 465 kts | 22° |
| 2026-04-25 20:29 | 53.31021 | 22.14931 | 34664 ft | 464 kts | 22° |
| 2026-04-25 20:29 | 53.36595 | 22.20339 | 34660 ft | 466 kts | 22° |
| 2026-04-25 20:30 | 53.42210 | 22.25795 | 34646 ft | 465 kts | 22° |
| 2026-04-25 20:30 | 53.47760 | 22.31210 | 34633 ft | 463 kts | 22° |
| 2026-04-25 20:31 | 53.53308 | 22.36645 | 34641 ft | 461 kts | 22° |
| 2026-04-25 20:31 | 53.58840 | 22.42067 | 34656 ft | 460 kts | 22° |
| 2026-04-25 20:32 | 53.64342 | 22.47480 | 34636 ft | 461 kts | 22° |
| 2026-04-25 20:32 | 53.69888 | 22.52951 | 34635 ft | 460 kts | 22° |
| 2026-04-25 20:33 | 53.75399 | 22.58415 | 34632 ft | 458 kts | 22° |
| 2026-04-25 20:33 | 53.79987 | 22.62978 | 34640 ft | 456 kts | 22° |
| 2026-04-25 20:34 | 53.86365 | 22.69332 | 34612 ft | 457 kts | 23° |
| 2026-04-25 20:34 | 53.91820 | 22.74781 | 34623 ft | 456 kts | 23° |
| 2026-04-25 20:35 | 53.97296 | 22.80268 | 34609 ft | 458 kts | 23° |
| 2026-04-25 20:35 | 54.02772 | 22.85768 | 34625 ft | 461 kts | 23° |
| 2026-04-25 20:36 | 54.08360 | 22.90916 | 34618 ft | 453 kts | 17° |
| 2026-04-25 20:36 | 54.14112 | 22.95042 | 34599 ft | 445 kts | 13° |
| 2026-04-25 20:37 | 54.19872 | 22.98805 | 34607 ft | 446 kts | 13° |
| 2026-04-25 20:37 | 54.25668 | 23.02586 | 34602 ft | 447 kts | 13° |
| 2026-04-25 20:38 | 54.31514 | 23.05967 | 34595 ft | 440 kts | 6° |
| 2026-04-25 20:38 | 54.37425 | 23.08209 | 34609 ft | 438 kts | 3° |
| 2026-04-25 20:39 | 54.43395 | 23.10113 | 34609 ft | 435 kts | 2° |
| 2026-04-25 20:39 | 54.48371 | 23.11662 | 34603 ft | 435 kts | 3° |
| 2026-04-25 20:40 | 54.55324 | 23.13857 | 34608 ft | 436 kts | 3° |
| 2026-04-25 20:40 | 54.61256 | 23.15765 | 34592 ft | 433 kts | 4° |
| 2026-04-25 20:41 | 54.67171 | 23.17681 | 34597 ft | 434 kts | 4° |
| 2026-04-25 20:41 | 54.73109 | 23.19611 | 34577 ft | 435 kts | 4° |
| 2026-04-25 20:42 | 54.79057 | 23.21561 | 34583 ft | 436 kts | 4° |
| 2026-04-25 20:42 | 54.84959 | 23.23499 | 34579 ft | 437 kts | 4° |
| 2026-04-25 20:43 | 54.90931 | 23.25465 | 34580 ft | 436 kts | 4° |
| 2026-04-25 20:43 | 54.96845 | 23.27424 | 34579 ft | 435 kts | 4° |
| 2026-04-25 20:44 | 55.02809 | 23.29399 | 34577 ft | 435 kts | 4° |
| 2026-04-25 20:44 | 55.08700 | 23.31360 | 34578 ft | 434 kts | 4° |
| 2026-04-25 20:45 | 55.14635 | 23.33337 | 34575 ft | 435 kts | 4° |
| 2026-04-25 20:45 | 55.20558 | 23.35315 | 34580 ft | 436 kts | 5° |
| 2026-04-25 20:46 | 55.26527 | 23.37316 | 34576 ft | 437 kts | 5° |
| 2026-04-25 20:46 | 55.32445 | 23.39308 | 34577 ft | 436 kts | 5° |
| 2026-04-25 20:47 | 55.38397 | 23.41314 | 34577 ft | 436 kts | 5° |
| 2026-04-25 20:47 | 55.44324 | 23.43322 | 34581 ft | 436 kts | 5° |
| 2026-04-25 20:48 | 55.50257 | 23.45336 | 34570 ft | 436 kts | 5° |
| 2026-04-25 20:48 | 55.56231 | 23.47368 | 34580 ft | 437 kts | 5° |
| 2026-04-25 20:49 | 55.62191 | 23.49404 | 34577 ft | 438 kts | 5° |
| 2026-04-25 20:49 | 55.68121 | 23.51437 | 34581 ft | 436 kts | 5° |
| 2026-04-25 20:50 | 55.74099 | 23.53491 | 34580 ft | 437 kts | 5° |
| 2026-04-25 20:50 | 55.80016 | 23.55531 | 34580 ft | 437 kts | 5° |
| 2026-04-25 20:51 | 55.86007 | 23.57601 | 34584 ft | 437 kts | 5° |
| 2026-04-25 20:51 | 55.91945 | 23.59661 | 34586 ft | 437 kts | 5° |
| 2026-04-25 20:52 | 55.96898 | 23.61383 | 34578 ft | 438 kts | 6° |
| 2026-04-25 20:52 | 56.03857 | 23.63814 | 34571 ft | 437 kts | 5° |
| 2026-04-25 20:53 | 56.09833 | 23.65906 | 34576 ft | 438 kts | 6° |
| 2026-04-25 20:53 | 56.15816 | 23.68011 | 34561 ft | 438 kts | 6° |
| 2026-04-25 20:54 | 56.21730 | 23.70156 | 34572 ft | 438 kts | 7° |
| 2026-04-25 20:54 | 56.27709 | 23.72369 | 34571 ft | 438 kts | 7° |
| 2026-04-25 20:55 | 56.33654 | 23.74585 | 34568 ft | 439 kts | 7° |
| 2026-04-25 20:55 | 56.39602 | 23.76812 | 34556 ft | 439 kts | 7° |
| 2026-04-25 20:56 | 56.45581 | 23.79057 | 34560 ft | 439 kts | 7° |
| 2026-04-25 20:56 | 56.51539 | 23.81303 | 34561 ft | 439 kts | 7° |
| 2026-04-25 20:57 | 56.57490 | 23.83554 | 34573 ft | 438 kts | 7° |
| 2026-04-25 20:57 | 56.63447 | 23.85810 | 34557 ft | 438 kts | 7° |
| 2026-04-25 20:58 | 56.69417 | 23.88082 | 34563 ft | 439 kts | 7° |
| 2026-04-25 20:58 | 56.75347 | 23.90346 | 34562 ft | 438 kts | 7° |
| 2026-04-25 20:59 | 56.81327 | 23.92631 | 34564 ft | 444 kts | 8° |
| 2026-04-25 20:59 | 56.87421 | 23.94965 | 34570 ft | 447 kts | 8° |
| 2026-04-25 21:00 | 56.92471 | 23.96912 | 34556 ft | 445 kts | 8° |
| 2026-04-25 21:01 | 57.02559 | 24.00818 | 34552 ft | 446 kts | 8° |
| 2026-04-25 21:01 | 57.08655 | 24.03186 | 34555 ft | 451 kts | 8° |
| 2026-04-25 21:02 | 57.14777 | 24.05575 | 34552 ft | 449 kts | 8° |
| 2026-04-25 21:02 | 57.20865 | 24.07962 | 34542 ft | 450 kts | 8° |
| 2026-04-25 21:03 | 57.26991 | 24.10370 | 34531 ft | 451 kts | 8° |
| 2026-04-25 21:03 | 57.33099 | 24.12778 | 34527 ft | 451 kts | 8° |
| 2026-04-25 21:04 | 57.39210 | 24.15193 | 34531 ft | 451 kts | 8° |
| 2026-04-25 21:04 | 57.45318 | 24.17615 | 34522 ft | 451 kts | 8° |
| 2026-04-25 21:05 | 57.51419 | 24.20041 | 34528 ft | 449 kts | 8° |
| 2026-04-25 21:05 | 57.57499 | 24.22467 | 34524 ft | 450 kts | 8° |
| 2026-04-25 21:06 | 57.63634 | 24.24924 | 34523 ft | 450 kts | 8° |
| 2026-04-25 21:06 | 57.69715 | 24.27368 | 34513 ft | 448 kts | 8° |
| 2026-04-25 21:07 | 57.75791 | 24.29819 | 34506 ft | 449 kts | 8° |
| 2026-04-25 21:07 | 57.81876 | 24.32281 | 34488 ft | 447 kts | 8° |
| 2026-04-25 21:08 | 57.87960 | 24.34751 | 34482 ft | 447 kts | 8° |
| 2026-04-25 21:08 | 57.94018 | 24.37219 | 34483 ft | 447 kts | 8° |
| 2026-04-25 21:09 | 58.03099 | 24.40938 | 34469 ft | 446 kts | 8° |
| 2026-04-25 21:09 | 58.09166 | 24.43433 | 34471 ft | 446 kts | 8° |
| 2026-04-25 21:10 | 58.15233 | 24.45930 | 34466 ft | 446 kts | 9° |
| 2026-04-25 21:10 | 58.21272 | 24.48428 | 34459 ft | 447 kts | 9° |
| 2026-04-25 21:11 | 58.27290 | 24.50930 | 34470 ft | 446 kts | 9° |
| 2026-04-25 21:11 | 58.33376 | 24.53466 | 34464 ft | 445 kts | 9° |
| 2026-04-25 21:12 | 58.39418 | 24.55993 | 34468 ft | 445 kts | 9° |
| 2026-04-25 21:12 | 58.44431 | 24.58095 | 34472 ft | 445 kts | 9° |
| 2026-04-25 21:13 | 58.51454 | 24.61052 | 34181 ft | 438 kts | 9° |
| 2026-04-25 21:13 | 58.54374 | 24.62287 | 33958 ft | 430 kts | 9° |
| 2026-04-25 21:13 | 58.57309 | 24.63531 | 33733 ft | 426 kts | 9° |
| 2026-04-25 21:14 | 58.60176 | 24.64747 | 33517 ft | 427 kts | 9° |
| 2026-04-25 21:14 | 58.63097 | 24.65984 | 33297 ft | 428 kts | 10° |
| 2026-04-25 21:14 | 58.66000 | 24.67215 | 32981 ft | 426 kts | 10° |
| 2026-04-25 21:14 | 58.68845 | 24.68425 | 32564 ft | 424 kts | 10° |
| 2026-04-25 21:15 | 58.71704 | 24.69643 | 32095 ft | 424 kts | 10° |
| 2026-04-25 21:15 | 58.74595 | 24.70876 | 31601 ft | 424 kts | 10° |
| 2026-04-25 21:15 | 58.77486 | 24.72113 | 31081 ft | 426 kts | 10° |
| 2026-04-25 21:15 | 58.80339 | 24.73335 | 30559 ft | 427 kts | 10° |
| 2026-04-25 21:16 | 58.83225 | 24.74573 | 30027 ft | 428 kts | 10° |
| 2026-04-25 21:16 | 58.86151 | 24.75832 | 29488 ft | 429 kts | 10° |
| 2026-04-25 21:16 | 58.89054 | 24.77082 | 28964 ft | 429 kts | 10° |
| 2026-04-25 21:16 | 58.91932 | 24.78325 | 28466 ft | 429 kts | 10° |
| 2026-04-25 21:17 | 58.94826 | 24.79575 | 27936 ft | 430 kts | 10° |
| 2026-04-25 21:17 | 58.97745 | 24.80839 | 27399 ft | 431 kts | 10° |
| 2026-04-25 21:17 | 59.00661 | 24.82103 | 26851 ft | 431 kts | 10° |
| 2026-04-25 21:17 | 59.03569 | 24.83367 | 26291 ft | 430 kts | 11° |
| 2026-04-25 21:18 | 59.06468 | 24.84631 | 25746 ft | 424 kts | 11° |
| 2026-04-25 21:18 | 59.09295 | 24.85866 | 25216 ft | 417 kts | 11° |
| 2026-04-25 21:18 | 59.12109 | 24.87091 | 24689 ft | 410 kts | 10° |
| 2026-04-25 21:18 | 59.14814 | 24.88047 | 24260 ft | 394 kts | 6° |
| 2026-04-25 21:19 | 59.17486 | 24.88732 | 23765 ft | 385 kts | 5° |
| 2026-04-25 21:19 | 59.20158 | 24.89303 | 23105 ft | 382 kts | 4° |
| 2026-04-25 21:19 | 59.22783 | 24.89846 | 22205 ft | 386 kts | 4° |
| 2026-04-25 21:19 | 59.25417 | 24.90416 | 21455 ft | 383 kts | 5° |
| 2026-04-25 21:20 | 59.28051 | 24.91022 | 20745 ft | 378 kts | 5° |
| 2026-04-25 21:20 | 59.29787 | 24.91434 | 20134 ft | 379 kts | 5° |
| 2026-04-25 21:20 | 59.33239 | 24.92274 | 19009 ft | 376 kts | 5° |
| 2026-04-25 21:20 | 59.35827 | 24.92916 | 18254 ft | 371 kts | 5° |
| 2026-04-25 21:21 | 59.38378 | 24.93556 | 17392 ft | 369 kts | 5° |
| 2026-04-25 21:21 | 59.40910 | 24.94193 | 16456 ft | 368 kts | 5° |
| 2026-04-25 21:21 | 59.43411 | 24.94829 | 15471 ft | 362 kts | 5° |
| 2026-04-25 21:21 | 59.45834 | 24.95449 | 14629 ft | 352 kts | 5° |
| 2026-04-25 21:22 | 59.48240 | 24.96065 | 13828 ft | 341 kts | 5° |
| 2026-04-25 21:22 | 59.50534 | 24.96667 | 13029 ft | 332 kts | 6° |
| 2026-04-25 21:22 | 59.52789 | 24.97281 | 12390 ft | 320 kts | 6° |
| 2026-04-25 21:22 | 59.54950 | 24.97854 | 11791 ft | 309 kts | 6° |
| 2026-04-25 21:23 | 59.57013 | 24.98393 | 11402 ft | 295 kts | 6° |
| 2026-04-25 21:23 | 59.59005 | 24.98883 | 10993 ft | 283 kts | 6° |
| 2026-04-25 21:23 | 59.60927 | 24.99359 | 10642 ft | 273 kts | 5° |
| 2026-04-25 21:23 | 59.62791 | 24.99832 | 10426 ft | 266 kts | 5° |
| 2026-04-25 21:24 | 59.64601 | 25.00298 | 10106 ft | 262 kts | 6° |
| 2026-04-25 21:24 | 59.66405 | 25.00765 | 9722 ft | 262 kts | 6° |
| 2026-04-25 21:24 | 59.68185 | 25.01227 | 9338 ft | 261 kts | 6° |
| 2026-04-25 21:24 | 59.69988 | 25.01697 | 8999 ft | 258 kts | 6° |
| 2026-04-25 21:25 | 59.71759 | 25.02163 | 8681 ft | 255 kts | 6° |
| 2026-04-25 21:25 | 59.73491 | 25.02628 | 8353 ft | 253 kts | 7° |
| 2026-04-25 21:25 | 59.75221 | 25.03099 | 8022 ft | 250 kts | 7° |
| 2026-04-25 21:25 | 59.76925 | 25.03565 | 7676 ft | 249 kts | 7° |
| 2026-04-25 21:26 | 59.78624 | 25.04022 | 7327 ft | 247 kts | 7° |
| 2026-04-25 21:26 | 59.80344 | 25.04457 | 6963 ft | 246 kts | 6° |
| 2026-04-25 21:26 | 59.82008 | 25.04848 | 6704 ft | 242 kts | 7° |
| 2026-04-25 21:26 | 59.83684 | 25.05260 | 6451 ft | 240 kts | 7° |
| 2026-04-25 21:27 | 59.85331 | 25.05685 | 6405 ft | 238 kts | 7° |
| 2026-04-25 21:27 | 59.86959 | 25.06110 | 6424 ft | 237 kts | 7° |
| 2026-04-25 21:27 | 59.88583 | 25.06539 | 6173 ft | 235 kts | 7° |
| 2026-04-25 21:27 | 59.90200 | 25.06968 | 5840 ft | 233 kts | 6° |
| 2026-04-25 21:28 | 59.91790 | 25.07391 | 5538 ft | 230 kts | 6° |
| 2026-04-25 21:28 | 59.93346 | 25.07802 | 5424 ft | 220 kts | 7° |
| 2026-04-25 21:28 | 59.94831 | 25.08193 | 5287 ft | 212 kts | 7° |
| 2026-04-25 21:28 | 59.96275 | 25.08570 | 5137 ft | 203 kts | 7° |
| 2026-04-25 21:29 | 59.97627 | 25.08932 | 4991 ft | 192 kts | 6° |
| 2026-04-25 21:29 | 59.98921 | 25.09279 | 4780 ft | 186 kts | 6° |
| 2026-04-25 21:29 | 60.00204 | 25.09623 | 4417 ft | 183 kts | 5° |
| 2026-04-25 21:29 | 60.01425 | 25.09945 | 4149 ft | 175 kts | 5° |
| 2026-04-25 21:30 | 60.02610 | 25.10271 | 3832 ft | 174 kts | 6° |
| 2026-04-25 21:30 | 60.03815 | 25.10631 | 3490 ft | 174 kts | 5° |
| 2026-04-25 21:30 | 60.05008 | 25.10963 | 3154 ft | 175 kts | 5° |
| 2026-04-25 21:30 | 60.05812 | 25.11173 | 2912 ft | 176 kts | 4° |
| 2026-04-25 21:31 | 60.07386 | 25.11600 | 2613 ft | 167 kts | 5° |
| 2026-04-25 21:31 | 60.08534 | 25.11911 | 2322 ft | 166 kts | 4° |
| 2026-04-25 21:31 | 60.09673 | 25.12260 | 2239 ft | 167 kts | 7° |
| 2026-04-25 21:31 | 60.10809 | 25.12780 | 2248 ft | 168 kts | 9° |
| 2026-04-25 21:32 | 60.11967 | 25.13333 | 2246 ft | 168 kts | 9° |
| 2026-04-25 21:32 | 60.13113 | 25.13750 | 2246 ft | 167 kts | 1° |
| 2026-04-25 21:32 | 60.14267 | 25.13718 | 2243 ft | 167 kts | 353° |
| 2026-04-25 21:32 | 60.15410 | 25.13370 | 2238 ft | 166 kts | 348° |
| 2026-04-25 21:33 | 60.16518 | 25.12748 | 2239 ft | 163 kts | 342° |
| 2026-04-25 21:33 | 60.17540 | 25.11958 | 2245 ft | 156 kts | 339° |
| 2026-04-25 21:33 | 60.18550 | 25.11077 | 2249 ft | 157 kts | 338° |
| 2026-04-25 21:33 | 60.19539 | 25.10144 | 2248 ft | 157 kts | 337° |
| 2026-04-25 21:34 | 60.20517 | 25.09174 | 2251 ft | 157 kts | 337° |
| 2026-04-25 21:34 | 60.21503 | 25.08199 | 2112 ft | 154 kts | 336° |
| 2026-04-25 21:34 | 60.22393 | 25.07295 | 1897 ft | 137 kts | 336° |
| 2026-04-25 21:34 | 60.23192 | 25.06478 | 1754 ft | 122 kts | 336° |
| 2026-04-25 21:35 | 60.23942 | 25.05724 | 1589 ft | 121 kts | 335° |
| 2026-04-25 21:35 | 60.24703 | 25.04958 | 1420 ft | 124 kts | 335° |
| 2026-04-25 21:35 | 60.25473 | 25.04170 | 1253 ft | 124 kts | 334° |
| 2026-04-25 21:35 | 60.26240 | 25.03390 | 1068 ft | 124 kts | 334° |
| 2026-04-25 21:36 | 60.27004 | 25.02604 | 1003 ft | 123 kts | 333° |
| 2026-04-25 21:36 | 60.27776 | 25.01787 | 929 ft | 126 kts | 333° |
| 2026-04-25 21:36 | 60.28573 | 25.00992 | 766 ft | 131 kts | 335° |
| 2026-04-25 21:36 | 60.29390 | 25.00173 | 562 ft | 130 kts | 333° |
| 2026-04-25 21:37 | 60.30195 | 24.99348 | 356 ft | 129 kts | 332° |
| 2026-04-25 21:37 | 60.30727 | 24.98806 | 224 ft | 131 kts | 332° |
| 2026-04-25 21:37 | 60.31650 | 24.97858 | 191 ft | 71 kts | 333° |
| 2026-04-25 21:37 | 60.32028 | 24.97471 | 190 ft | 48 kts | 333° |
| 2026-04-25 21:38 | 60.32287 | 24.97208 | 190 ft | 32 kts | 333° |
| 2026-04-25 21:38 | 60.32388 | 24.97031 | 190 ft | 16 kts | 272° |
| 2026-04-25 21:38 | 60.32357 | 24.96906 | 190 ft | 5 kts | 230° |
| 2026-04-25 21:38 | 60.32313 | 24.96851 | 190 ft | 9 kts | 176° |
| 2026-04-25 21:39 | 60.32243 | 24.96861 | 190 ft | 10 kts | 214° |
| 2026-04-25 21:39 | 60.32186 | 24.96809 | 190 ft | 9 kts | 162° |
| 2026-04-25 21:39 | 60.32117 | 24.96867 | 190 ft | 11 kts | 184° |
| 2026-04-25 21:39 | 60.32061 | 24.96777 | 190 ft | 10 kts | 228° |
| 2026-04-25 21:40 | 60.32014 | 24.96673 | 190 ft | 11 kts | 227° |
| 2026-04-25 21:40 | 60.31953 | 24.96540 | 190 ft | 12 kts | 227° |
| 2026-04-25 21:40 | 60.31897 | 24.96416 | 190 ft | 6 kts | 227° |
| 2026-04-25 21:40 | 60.31878 | 24.96405 | 190 ft | 3 kts | 158° |
| 2026-04-25 21:41 | 60.31858 | 24.96431 | 190 ft | 3 kts | 140° |
| 2026-04-25 21:41 | 60.31843 | 24.96460 | 190 ft | 1 kts | 136° |
| 2026-04-25 21:41 | 60.31840 | 24.96465 | 190 ft | 0 kts | 136° |